Time;durP1;ratioP1;P1;durP2;ratioP2;P2;SDS_P1;SDS_P2;PMS_P1;PMS_P2;Temp;Humidity;BMP_temperature;BMP_pressure;BME280_temperature;BME280_humidity;BME280_pressure;Samples;Min_cycle;Max_cycle;Signal;HPM_P1;HPM_P2
2024/02/01 00:00:01;;;;;;;18.50;7.43;;;;;;;;;;5075226;28;20020;-27
2024/02/01 00:02:26;;;;;;;18.55;6.78;;;;;;;;;;5074859;28;20757;-27
2024/02/01 00:04:51;;;;;;;18.47;6.67;;;;;;;;;;5074440;28;20406;-28
2024/02/01 00:07:16;;;;;;;16.90;6.83;;;;;;;;;;5075148;28;20353;-28
2024/02/01 00:09:42;;;;;;;16.15;6.43;;;;;;;;;;5074687;28;20788;-27
2024/02/01 00:12:07;;;;;;;19.15;6.53;;;;;;;;;;5074994;28;20089;-28
2024/02/01 00:14:32;;;;;;;22.13;6.78;;;;;;;;;;5075013;28;20025;-27
2024/02/01 00:16:57;;;;;;;18.38;5.97;;;;;;;;;;5074322;28;20016;-27
2024/02/01 00:19:23;;;;;;;21.23;7.10;;;;;;;;;;5074323;28;20464;-28
2024/02/01 00:21:49;;;;;;;16.63;6.37;;;;;;;;;;5074296;28;20257;-27
2024/02/01 00:24:14;;;;;;;17.75;5.93;;;;;;;;;;5074496;28;20587;-28
2024/02/01 00:26:40;;;;;;;17.48;5.57;;;;;;;;;;5074440;28;20150;-27
2024/02/01 00:29:05;;;;;;;18.70;6.18;;;;;;;;;;5074329;28;20380;-27
2024/02/01 00:31:30;;;;;;;16.30;5.32;;;;;;;;;;5074261;28;20013;-27
2024/02/01 00:33:55;;;;;;;16.60;5.80;;;;;;;;;;5074020;28;20016;-27
2024/02/01 00:36:20;;;;;;;21.33;5.57;;;;;;;;;;5073925;28;20049;-27
2024/02/01 00:38:46;;;;;;;15.00;5.27;;;;;;;;;;5074516;28;20258;-27
2024/02/01 00:41:11;;;;;;;17.80;5.43;;;;;;;;;;5073954;28;20653;-27
2024/02/01 00:43:37;;;;;;;19.27;5.70;;;;;;;;;;5074452;28;20016;-27
2024/02/01 00:46:02;;;;;;;17.43;5.40;;;;;;;;;;5073822;28;20077;-27
2024/02/01 00:48:27;;;;;;;20.02;5.13;;;;;;;;;;5074290;28;20759;-27
2024/02/01 00:50:52;;;;;;;20.73;5.30;;;;;;;;;;5073734;28;20470;-28
2024/02/01 00:53:17;;;;;;;17.33;4.87;;;;;;;;;;5072951;28;20024;-27
2024/02/01 00:55:42;;;;;;;19.30;5.33;;;;;;;;;;5073721;28;20258;-28
2024/02/01 00:58:08;;;;;;;19.20;4.80;;;;;;;;;;5073970;28;20322;-29
2024/02/01 01:00:33;;;;;;;18.70;4.83;;;;;;;;;;5074136;28;20267;-28
2024/02/01 01:02:59;;;;;;;15.85;4.65;;;;;;;;;;5073594;28;20788;-28
2024/02/01 01:05:24;;;;;;;16.98;5.28;;;;;;;;;;5073833;28;20376;-29
2024/02/01 01:07:49;;;;;;;14.30;4.50;;;;;;;;;;5074527;28;20020;-29
2024/02/01 01:10:15;;;;;;;23.17;5.10;;;;;;;;;;5073457;28;20474;-29
2024/02/01 01:12:40;;;;;;;21.20;5.00;;;;;;;;;;5073415;28;20258;-29
2024/02/01 01:15:05;;;;;;;21.50;5.33;;;;;;;;;;5073941;28;20031;-29
2024/02/01 01:17:30;;;;;;;14.75;4.70;;;;;;;;;;5073963;28;20251;-29
2024/02/01 01:20:02;;;;;;;16.23;4.55;;;;;;;;;;5073967;28;20031;-29
2024/02/01 01:22:27;;;;;;;34.25;5.97;;;;;;;;;;5073317;28;20034;-29
2024/02/01 01:24:53;;;;;;;21.80;4.50;;;;;;;;;;5073348;28;20099;-30
2024/02/01 01:27:18;;;;;;;28.60;5.23;;;;;;;;;;5073579;28;20062;-29
2024/02/01 01:29:43;;;;;;;22.63;4.73;;;;;;;;;;5073300;28;20750;-29
2024/02/01 01:32:08;;;;;;;17.37;4.67;;;;;;;;;;5073778;28;20266;-29
2024/02/01 01:34:33;;;;;;;19.90;5.37;;;;;;;;;;5073284;28;20780;-29
2024/02/01 01:36:58;;;;;;;18.40;4.83;;;;;;;;;;5073309;28;20251;-29
2024/02/01 01:39:24;;;;;;;25.83;5.37;;;;;;;;;;5073239;28;20742;-29
2024/02/01 01:41:49;;;;;;;24.90;5.10;;;;;;;;;;5073747;28;20404;-28
2024/02/01 01:44:14;;;;;;;20.10;4.93;;;;;;;;;;5073676;28;20024;-29
2024/02/01 01:46:39;;;;;;;26.53;6.23;;;;;;;;;;5073163;28;20678;-29
2024/02/01 01:49:06;;;;;;;31.60;5.50;;;;;;;;;;5073607;28;20279;-29
2024/02/01 01:51:32;;;;;;;27.08;6.13;;;;;;;;;;5073070;28;20016;-29
2024/02/01 01:53:57;;;;;;;25.75;5.30;;;;;;;;;;5073062;28;20084;-29
2024/02/01 01:56:23;;;;;;;30.17;5.85;;;;;;;;;;5073084;28;20008;-29
2024/02/01 01:58:49;;;;;;;23.13;5.15;;;;;;;;;;5073377;28;20086;-29
2024/02/01 02:01:14;;;;;;;25.95;5.72;;;;;;;;;;5073571;28;20051;-28
2024/02/01 02:03:41;;;;;;;29.15;5.25;;;;;;;;;;5073475;28;20462;-29
2024/02/01 02:06:06;;;;;;;21.92;5.60;;;;;;;;;;5076922;28;20021;-29
2024/02/01 02:08:31;;;;;;;26.13;5.20;;;;;;;;;;5076976;28;20513;-29
2024/02/01 02:10:57;;;;;;;29.05;6.30;;;;;;;;;;5076999;28;20021;-29
2024/02/01 02:13:22;;;;;;;28.92;5.10;;;;;;;;;;5076710;28;20070;-29
2024/02/01 02:15:47;;;;;;;22.90;4.43;;;;;;;;;;5076714;28;20013;-29
2024/02/01 02:18:12;;;;;;;22.73;5.17;;;;;;;;;;5076873;28;20262;-29
2024/02/01 02:20:40;;;;;;;20.73;4.90;;;;;;;;;;5076596;28;20283;-29
2024/02/01 02:23:07;;;;;;;35.22;7.15;;;;;;;;;;5076803;28;20724;-30
2024/02/01 02:25:32;;;;;;;21.83;5.10;;;;;;;;;;5076780;28;20096;-29
2024/02/01 02:27:57;;;;;;;25.98;5.65;;;;;;;;;;5076927;28;20044;-28
2024/02/01 02:30:23;;;;;;;21.30;5.10;;;;;;;;;;5076327;28;20513;-29
2024/02/01 02:32:48;;;;;;;20.27;4.85;;;;;;;;;;5076309;28;20258;-29
2024/02/01 02:35:13;;;;;;;26.30;5.07;;;;;;;;;;5076600;28;20016;-29
2024/02/01 02:37:51;;;;;;;27.95;4.80;;;;;;;;;;5076480;28;20460;-29
2024/02/01 02:40:17;;;;;;;26.33;4.72;;;;;;;;;;5076795;28;20029;-29
2024/02/01 02:42:42;;;;;;;26.50;4.03;;;;;;;;;;5076469;28;20048;-29
2024/02/01 02:45:08;;;;;;;21.25;3.63;;;;;;;;;;5076712;28;20401;-30
2024/02/01 02:47:33;;;;;;;23.00;3.40;;;;;;;;;;5076050;28;20357;-30
2024/02/01 02:49:59;;;;;;;25.63;4.57;;;;;;;;;;5076289;28;20050;-29
2024/02/01 02:52:24;;;;;;;15.98;2.95;;;;;;;;;;5076231;28;20025;-29
2024/02/01 02:54:49;;;;;;;14.20;2.70;;;;;;;;;;5076536;28;20067;-29
2024/02/01 02:57:14;;;;;;;19.53;2.67;;;;;;;;;;5075955;28;20258;-29
2024/02/01 02:59:39;;;;;;;15.40;2.50;;;;;;;;;;5076415;28;20255;-29
2024/02/01 03:02:07;;;;;;;16.70;2.67;;;;;;;;;;5075758;28;20294;-29
2024/02/01 03:04:35;;;;;;;25.60;2.63;;;;;;;;;;5075663;28;20299;-29
2024/02/01 03:07:00;;;;;;;17.25;2.85;;;;;;;;;;5075735;28;20017;-30
2024/02/01 03:09:26;;;;;;;22.73;2.83;;;;;;;;;;5076084;28;20032;-29
2024/02/01 03:11:51;;;;;;;22.02;2.85;;;;;;;;;;5075855;28;20027;-29
2024/02/01 03:14:16;;;;;;;15.63;2.47;;;;;;;;;;5075636;28;20093;-29
2024/02/01 03:16:42;;;;;;;18.60;2.87;;;;;;;;;;5075202;28;20020;-29
2024/02/01 03:19:11;;;;;;;14.50;2.42;;;;;;;;;;5075794;28;20746;-30
2024/02/01 03:21:36;;;;;;;15.48;2.35;;;;;;;;;;5075460;28;20032;-29
2024/02/01 03:24:02;;;;;;;14.35;2.10;;;;;;;;;;5075440;28;20028;-30
2024/02/01 03:26:34;;;;;;;23.52;3.08;;;;;;;;;;5075604;28;20021;-29
2024/02/01 03:28:59;;;;;;;18.83;2.47;;;;;;;;;;5075540;28;20432;-29
2024/02/01 03:31:33;;;;;;;20.98;2.60;;;;;;;;;;5075316;28;20052;-29
2024/02/01 03:33:59;;;;;;;18.33;2.70;;;;;;;;;;5075506;28;20020;-29
2024/02/01 03:36:25;;;;;;;25.92;3.20;;;;;;;;;;5075526;28;20024;-30
2024/02/01 03:38:50;;;;;;;16.53;2.20;;;;;;;;;;5075139;28;20108;-29
2024/02/01 03:41:15;;;;;;;15.43;2.58;;;;;;;;;;5075076;28;20254;-30
2024/02/01 03:43:40;;;;;;;18.40;2.50;;;;;;;;;;5075030;28;20491;-29
2024/02/01 03:46:05;;;;;;;21.53;2.73;;;;;;;;;;5075554;28;20345;-29
2024/02/01 03:48:32;;;;;;;24.50;2.65;;;;;;;;;;5075181;28;20275;-29
2024/02/01 03:50:57;;;;;;;26.60;2.97;;;;;;;;;;5074902;28;20016;-29
2024/02/01 03:53:23;;;;;;;16.17;2.80;;;;;;;;;;5075426;28;20024;-29
2024/02/01 03:55:51;;;;;;;34.30;3.40;;;;;;;;;;5074756;28;20467;-29
2024/02/01 03:58:16;;;;;;;18.15;2.83;;;;;;;;;;5074772;28;20316;-29
2024/02/01 04:00:42;;;;;;;23.50;2.85;;;;;;;;;;5074993;28;20107;-29
2024/02/01 04:03:13;;;;;;;29.27;2.80;;;;;;;;;;5074927;28;20106;-30
2024/02/01 04:05:39;;;;;;;25.50;3.55;;;;;;;;;;5074866;28;20019;-29
2024/02/01 04:08:07;;;;;;;27.38;3.67;;;;;;;;;;5075025;28;20372;-29
2024/02/01 04:10:34;;;;;;;25.27;2.90;;;;;;;;;;5074424;28;20078;-29
2024/02/01 04:12:59;;;;;;;27.38;3.88;;;;;;;;;;5074584;28;20012;-30
2024/02/01 04:15:24;;;;;;;17.15;2.58;;;;;;;;;;5073142;28;20032;-29
2024/02/01 04:17:50;;;;;;;27.83;2.60;;;;;;;;;;5074629;28;20016;-29
2024/02/01 04:20:15;;;;;;;22.20;3.03;;;;;;;;;;5074580;28;20745;-30
2024/02/01 04:22:41;;;;;;;23.87;3.23;;;;;;;;;;5074324;28;20048;-29
2024/02/01 04:25:08;;;;;;;27.13;3.28;;;;;;;;;;5074202;28;20262;-30
2024/02/01 04:27:33;;;;;;;23.88;2.80;;;;;;;;;;5074657;28;20444;-29
2024/02/01 04:29:58;;;;;;;22.98;3.30;;;;;;;;;;5074049;28;20021;-29
2024/02/01 04:32:24;;;;;;;22.23;2.80;;;;;;;;;;5074642;28;20074;-29
2024/02/01 04:34:49;;;;;;;20.70;2.70;;;;;;;;;;5074087;28;20598;-29
2024/02/01 04:37:14;;;;;;;20.38;3.25;;;;;;;;;;5073975;28;20346;-29
2024/02/01 04:39:39;;;;;;;18.70;2.67;;;;;;;;;;5073917;28;20028;-29
2024/02/01 04:42:17;;;;;;;25.58;2.67;;;;;;;;;;5074252;28;20174;-29
2024/02/01 04:44:43;;;;;;;28.30;3.95;;;;;;;;;;5073865;28;20020;-29
2024/02/01 04:47:09;;;;;;;30.52;3.10;;;;;;;;;;5074075;28;20031;-29
2024/02/01 04:49:34;;;;;;;19.40;2.65;;;;;;;;;;5073894;28;20383;-29
2024/02/01 04:51:59;;;;;;;20.40;2.80;;;;;;;;;;5073817;28;20016;-29
2024/02/01 04:54:27;;;;;;;30.38;3.05;;;;;;;;;;5073532;28;20482;-29
2024/02/01 04:56:53;;;;;;;22.13;2.70;;;;;;;;;;5073789;28;20016;-29
2024/02/01 04:59:18;;;;;;;17.73;2.17;;;;;;;;;;5073713;28;20378;-29
2024/02/01 05:01:43;;;;;;;21.97;2.93;;;;;;;;;;5073807;28;20408;-30
2024/02/01 05:04:13;;;;;;;26.80;3.42;;;;;;;;;;5073494;28;20302;-29
2024/02/01 05:06:38;;;;;;;21.50;2.95;;;;;;;;;;5073850;28;20035;-29
2024/02/01 05:09:03;;;;;;;21.10;2.97;;;;;;;;;;5074020;28;20024;-29
2024/02/01 05:11:29;;;;;;;32.57;3.60;;;;;;;;;;5073713;28;20008;-29
2024/02/01 05:13:54;;;;;;;26.33;4.27;;;;;;;;;;5074059;28;20244;-29
2024/02/01 05:16:19;;;;;;;20.57;2.60;;;;;;;;;;5073739;28;20255;-29
2024/02/01 05:18:44;;;;;;;19.45;2.95;;;;;;;;;;5073683;28;20336;-30
2024/02/01 05:21:09;;;;;;;21.90;2.97;;;;;;;;;;5073927;28;20024;-30
2024/02/01 05:23:35;;;;;;;26.67;2.60;;;;;;;;;;5073351;28;20326;-29
2024/02/01 05:26:00;;;;;;;18.67;3.05;;;;;;;;;;5074398;28;20266;-29
2024/02/01 05:28:25;;;;;;;17.63;2.83;;;;;;;;;;5073256;28;20517;-29
2024/02/01 05:30:51;;;;;;;19.13;2.27;;;;;;;;;;5073326;28;20021;-29
2024/02/01 05:33:16;;;;;;;21.17;2.73;;;;;;;;;;5073822;28;20315;-29
2024/02/01 05:35:42;;;;;;;18.35;2.30;;;;;;;;;;5073281;28;20270;-29
2024/02/01 05:38:08;;;;;;;19.35;2.80;;;;;;;;;;5073766;28;20021;-29
2024/02/01 05:40:33;;;;;;;17.45;2.90;;;;;;;;;;5077172;28;20450;-29
2024/02/01 05:42:58;;;;;;;16.97;3.27;;;;;;;;;;5077399;28;20024;-29
2024/02/01 05:45:27;;;;;;;21.70;3.03;;;;;;;;;;5077274;28;20306;-29
2024/02/01 05:47:53;;;;;;;21.17;2.75;;;;;;;;;;5077446;28;20524;-29
2024/02/01 05:50:18;;;;;;;20.10;2.42;;;;;;;;;;5077168;28;20017;-29
2024/02/01 05:52:43;;;;;;;27.33;3.13;;;;;;;;;;5077128;28;20023;-29
2024/02/01 05:55:13;;;;;;;27.50;2.75;;;;;;;;;;5077694;28;20143;-29
2024/02/01 05:57:38;;;;;;;21.92;3.53;;;;;;;;;;5077031;28;20029;-42
2024/02/01 06:00:07;;;;;;;24.92;3.38;;;;;;;;;;5076980;28;20017;-29
2024/02/01 06:02:33;;;;;;;20.33;3.22;;;;;;;;;;5075539;28;20016;-30
2024/02/01 06:04:58;;;;;;;14.80;2.83;;;;;;;;;;5077493;28;20017;-29
2024/02/01 06:07:25;;;;;;;27.67;3.90;;;;;;;;;;5076856;28;20021;-29
2024/02/01 06:09:50;;;;;;;24.92;3.22;;;;;;;;;;5077001;28;20383;-30
2024/02/01 06:12:15;;;;;;;22.52;2.75;;;;;;;;;;5076701;28;20012;-30
2024/02/01 06:14:40;;;;;;;20.98;3.15;;;;;;;;;;5076974;28;20456;-29
2024/02/01 06:17:05;;;;;;;26.30;3.17;;;;;;;;;;5076670;28;20526;-29
2024/02/01 06:19:30;;;;;;;21.52;3.47;;;;;;;;;;5077188;28;20263;-29
2024/02/01 06:21:56;;;;;;;24.60;2.87;;;;;;;;;;5076690;28;20099;-29
2024/02/01 06:24:21;;;;;;;21.60;3.17;;;;;;;;;;5077065;28;20304;-29
2024/02/01 06:26:46;;;;;;;22.03;3.40;;;;;;;;;;5076538;28;20273;-29
2024/02/01 06:29:11;;;;;;;25.95;3.58;;;;;;;;;;5076325;28;20385;-29
2024/02/01 06:31:40;;;;;;;28.85;4.88;;;;;;;;;;5076672;28;20017;-29
2024/02/01 06:34:06;;;;;;;15.70;3.40;;;;;;;;;;5076609;28;20031;-30
2024/02/01 06:36:38;;;;;;;23.30;3.85;;;;;;;;;;5076629;28;20455;-29
2024/02/01 06:44:26;;;;;;;17.20;2.65;;;;;;;;;;5076990;28;20057;-29
2024/02/01 06:49:39;;;;;;;23.08;3.45;;;;;;;;;;5076378;28;20031;-29
2024/02/01 06:57:18;;;;;;;26.08;3.42;;;;;;;;;;5076192;28;20031;-30
2024/02/01 07:02:35;;;;;;;;;;;;;;;;;;5076136;28;20047;-29
2024/02/01 07:05:11;;;;;;;25.40;4.13;;;;;;;;;;5075633;28;20006;-29
2024/02/01 07:07:42;;;;;;;30.90;4.72;;;;;;;;;;5075928;28;20108;-29
2024/02/01 07:10:16;;;;;;;22.50;4.10;;;;;;;;;;5075662;28;20033;-29
2024/02/01 07:13:06;;;;;;;24.90;4.05;;;;;;;;;;5075489;28;20059;-29
2024/02/01 07:15:31;;;;;;;27.20;3.40;;;;;;;;;;5075539;28;20070;-30
2024/02/01 07:18:05;;;;;;;21.88;3.40;;;;;;;;;;5075128;28;20025;-30
2024/02/01 07:20:50;;;;;;;23.25;3.80;;;;;;;;;;5075115;28;20025;-29
2024/02/01 07:25:48;;;;;;;24.73;3.95;;;;;;;;;;5075198;28;20056;-29
2024/02/01 07:58:21;;;;;;;23.58;3.88;;;;;;;;;;5075420;28;20090;-30
2024/02/01 08:00:48;;;;;;;25.23;3.58;;;;;;;;;;5074921;28;20024;-29
2024/02/01 08:08:35;;;;;;;21.25;3.70;;;;;;;;;;5074463;28;20111;-29
2024/02/01 08:11:01;;;;;;;25.00;3.83;;;;;;;;;;5074370;28;20446;-29
2024/02/01 08:13:26;;;;;;;28.30;4.25;;;;;;;;;;5074615;28;20027;-29
2024/02/01 08:15:56;;;;;;;20.67;3.25;;;;;;;;;;5074860;28;20020;-29
2024/02/01 08:18:21;;;;;;;26.83;4.18;;;;;;;;;;5074210;28;20028;-29
2024/02/01 08:20:47;;;;;;;23.35;3.10;;;;;;;;;;5074563;28;20019;-30
2024/02/01 08:23:23;;;;;;;27.13;4.55;;;;;;;;;;5074235;28;20050;-29
2024/02/01 08:25:49;;;;;;;23.60;3.80;;;;;;;;;;5074462;28;20459;-30
2024/02/01 08:28:15;;;;;;;30.90;5.43;;;;;;;;;;5074617;28;20129;-29
2024/02/01 08:30:41;;;;;;;25.45;8.18;;;;;;;;;;5073970;28;20395;-29
2024/02/01 08:33:15;;;;;;;30.38;8.50;;;;;;;;;;5074497;28;20017;-29
2024/02/01 08:35:40;;;;;;;25.95;8.15;;;;;;;;;;5073953;28;20016;-29
2024/02/01 08:38:06;;;;;;;22.65;7.03;;;;;;;;;;5074210;28;20040;-30
2024/02/01 08:40:32;;;;;;;29.92;5.32;;;;;;;;;;5074085;28;20043;-29
2024/02/01 08:43:01;;;;;;;25.08;5.80;;;;;;;;;;5074224;28;20033;-29
2024/02/01 08:45:27;;;;;;;37.47;8.20;;;;;;;;;;5074128;28;20021;-29
2024/02/01 08:47:53;;;;;;;23.30;6.03;;;;;;;;;;5073857;28;20023;-29
2024/02/01 08:50:18;;;;;;;29.02;7.00;;;;;;;;;;5074116;28;20024;-29
2024/02/01 08:52:46;;;;;;;25.83;6.00;;;;;;;;;;5073728;28;20452;-29
2024/02/01 08:55:13;;;;;;;21.95;3.83;;;;;;;;;;5073927;28;20350;-30
2024/02/01 08:57:39;;;;;;;31.33;4.47;;;;;;;;;;5073842;28;20012;-30
2024/02/01 09:00:21;;;;;;;21.25;3.95;;;;;;;;;;5073582;28;20034;-31
2024/02/01 09:02:46;;;;;;;24.08;3.35;;;;;;;;;;5073091;28;20107;-30
2024/02/01 09:05:19;;;;;;;25.30;4.22;;;;;;;;;;5073511;28;20063;-29
2024/02/01 09:07:44;;;;;;;21.27;3.38;;;;;;;;;;5073885;28;20031;-30
2024/02/01 09:10:09;;;;;;;26.47;4.73;;;;;;;;;;5073719;28;20367;-30
2024/02/01 09:12:34;;;;;;;21.30;3.47;;;;;;;;;;5073952;28;20259;-30
2024/02/01 09:14:59;;;;;;;21.03;4.40;;;;;;;;;;5073121;28;20012;-30
2024/02/01 09:17:25;;;;;;;23.30;3.80;;;;;;;;;;5073280;28;20312;-30
2024/02/01 09:19:50;;;;;;;22.70;4.30;;;;;;;;;;5073642;28;20270;-30
2024/02/01 09:22:15;;;;;;;26.97;3.47;;;;;;;;;;5073604;28;20271;-29
2024/02/01 09:24:40;;;;;;;22.40;3.95;;;;;;;;;;5073770;28;20741;-29
2024/02/01 09:27:05;;;;;;;27.33;3.80;;;;;;;;;;5073920;28;20024;-29
2024/02/01 09:29:34;;;;;;;25.80;3.40;;;;;;;;;;5073668;28;20366;-29
2024/02/01 09:32:00;;;;;;;26.38;3.58;;;;;;;;;;5073345;28;20262;-29
2024/02/01 09:34:25;;;;;;;22.10;3.47;;;;;;;;;;5073204;28;20028;-29
2024/02/01 09:36:50;;;;;;;22.23;3.35;;;;;;;;;;5072172;28;20047;-29
2024/02/01 09:39:16;;;;;;;25.90;4.97;;;;;;;;;;5073467;28;20027;-28
2024/02/01 09:41:41;;;;;;;24.25;3.75;;;;;;;;;;5073452;28;20029;-29
2024/02/01 09:44:06;;;;;;;36.60;4.23;;;;;;;;;;5073119;28;20380;-29
2024/02/01 09:46:34;;;;;;;34.97;4.95;;;;;;;;;;5073115;28;20362;-29
2024/02/01 09:49:00;;;;;;;28.65;4.40;;;;;;;;;;5073338;28;20156;-30
2024/02/01 09:51:26;;;;;;;27.13;4.85;;;;;;;;;;5073373;28;20074;-29
2024/02/01 09:53:51;;;;;;;29.55;5.10;;;;;;;;;;5071793;28;20025;-29
2024/02/01 09:56:17;;;;;;;26.27;5.20;;;;;;;;;;5073106;28;20066;-29
2024/02/01 09:58:43;;;;;;;30.20;5.70;;;;;;;;;;5073352;28;20099;-30
2024/02/01 10:01:10;;;;;;;23.83;4.95;;;;;;;;;;5073047;28;20025;-30
2024/02/01 10:03:40;;;;;;;24.73;5.30;;;;;;;;;;5072637;28;20044;-29
2024/02/01 10:06:05;;;;;;;26.63;4.82;;;;;;;;;;5072698;28;20048;-29
2024/02/01 10:08:33;;;;;;;23.40;5.22;;;;;;;;;;5072526;28;20036;-29
2024/02/01 10:11:00;;;;;;;28.75;5.68;;;;;;;;;;5073083;28;20380;-29
2024/02/01 10:13:30;;;;;;;22.83;4.93;;;;;;;;;;5072472;28;20052;-29
2024/02/01 10:15:56;;;;;;;22.95;5.00;;;;;;;;;;5072840;28;20021;-29
2024/02/01 10:18:21;;;;;;;23.53;5.47;;;;;;;;;;5073433;28;20069;-29
2024/02/01 10:20:50;;;;;;;27.83;5.47;;;;;;;;;;5073017;28;20349;-29
2024/02/01 10:23:16;;;;;;;27.13;5.38;;;;;;;;;;5073365;28;20016;-29
2024/02/01 10:25:45;;;;;;;20.20;4.95;;;;;;;;;;5075320;28;20027;-29
2024/02/01 10:28:16;;;;;;;22.42;5.43;;;;;;;;;;5076402;28;20019;-29
2024/02/01 10:30:45;;;;;;;25.48;5.18;;;;;;;;;;5076191;28;20052;-29
2024/02/01 10:33:10;;;;;;;23.05;4.95;;;;;;;;;;5076159;28;20103;-30
2024/02/01 10:35:36;;;;;;;26.00;5.60;;;;;;;;;;5076299;28;20048;-29
2024/02/01 10:38:12;;;;;;;27.73;5.22;;;;;;;;;;5076111;28;20021;-29
2024/02/01 10:40:48;;;;;;;23.83;4.90;;;;;;;;;;5076408;28;20059;-29
2024/02/01 10:43:17;;;;;;;27.35;5.22;;;;;;;;;;5074845;28;20464;-32
2024/02/01 10:45:42;;;;;;;27.30;5.15;;;;;;;;;;5076240;28;20037;-29
2024/02/01 10:48:09;;;;;;;31.80;9.90;;;;;;;;;;5075859;28;20050;-29
2024/02/01 10:50:38;;;;;;;22.63;4.40;;;;;;;;;;5076148;28;20090;-29
2024/02/01 10:53:05;;;;;;;22.02;4.50;;;;;;;;;;5076513;28;20028;-30
2024/02/01 10:55:30;;;;;;;20.73;5.05;;;;;;;;;;5076209;28;20523;-29
2024/02/01 10:57:59;;;;;;;19.00;4.50;;;;;;;;;;5076191;28;20044;-29
2024/02/01 11:00:25;;;;;;;22.75;5.47;;;;;;;;;;5075854;28;20099;-29
2024/02/01 11:02:51;;;;;;;25.15;4.85;;;;;;;;;;5076134;28;20068;-29
2024/02/01 11:05:16;;;;;;;20.13;4.72;;;;;;;;;;5076379;28;20028;-29
2024/02/01 11:07:42;;;;;;;21.33;4.72;;;;;;;;;;5075762;28;20082;-29
2024/02/01 11:10:13;;;;;;;22.83;5.03;;;;;;;;;;5075519;28;20021;-29
2024/02/01 11:12:38;;;;;;;25.35;5.10;;;;;;;;;;5076094;28;20016;-29
2024/02/01 11:15:05;;;;;;;18.67;4.65;;;;;;;;;;5075432;28;20372;-29
2024/02/01 11:17:31;;;;;;;19.08;4.68;;;;;;;;;;5075840;28;20021;-29
2024/02/01 11:19:58;;;;;;;19.77;4.57;;;;;;;;;;5075457;28;20123;-29
2024/02/01 11:22:27;;;;;;;17.80;4.97;;;;;;;;;;5075469;28;20107;-29
2024/02/01 11:25:04;;;;;;;19.80;4.53;;;;;;;;;;5075359;28;20043;-30
2024/02/01 11:27:29;;;;;;;25.42;5.32;;;;;;;;;;5075232;28;20093;-30
2024/02/01 11:30:19;;;;;;;22.98;4.90;;;;;;;;;;5075326;28;20060;-28
2024/02/01 11:32:43;;;;;;;21.27;4.43;;;;;;;;;;5074924;28;20036;-28
2024/02/01 11:35:10;;;;;;;22.45;5.20;;;;;;;;;;5074921;28;20028;-29
2024/02/01 11:37:35;;;;;;;17.80;4.60;;;;;;;;;;5074668;28;20020;-29
2024/02/01 11:40:00;;;;;;;26.27;5.17;;;;;;;;;;5075631;28;20090;-28
2024/02/01 11:42:26;;;;;;;21.10;4.70;;;;;;;;;;5075158;28;20102;-29
2024/02/01 11:44:51;;;;;;;21.80;4.43;;;;;;;;;;5074948;28;20422;-29
2024/02/01 11:47:26;;;;;;;21.90;4.53;;;;;;;;;;5075693;28;20027;-30
2024/02/01 11:49:52;;;;;;;22.75;4.43;;;;;;;;;;5075061;28;20161;-28
2024/02/01 11:52:36;;;;;;;22.58;4.78;;;;;;;;;;5075381;28;20025;-28
2024/02/01 11:55:03;;;;;;;17.02;4.28;;;;;;;;;;5074612;28;20090;-28
2024/02/01 11:57:30;;;;;;;26.13;4.40;;;;;;;;;;5074749;28;20016;-28
2024/02/01 11:59:55;;;;;;;22.23;4.75;;;;;;;;;;5074847;28;20092;-28
2024/02/01 12:02:24;;;;;;;21.35;4.20;;;;;;;;;;5074841;28;20035;-28
2024/02/01 12:04:50;;;;;;;20.65;4.25;;;;;;;;;;5074413;28;20097;-28
2024/02/01 12:07:17;;;;;;;19.45;4.13;;;;;;;;;;5074493;28;20021;-28
2024/02/01 12:09:44;;;;;;;24.50;4.22;;;;;;;;;;5074676;28;20017;-29
2024/02/01 12:12:13;;;;;;;27.52;4.68;;;;;;;;;;5073452;28;20052;-28
2024/02/01 12:14:39;;;;;;;25.23;4.28;;;;;;;;;;5072371;28;20545;-29
2024/02/01 12:17:05;;;;;;;21.42;3.97;;;;;;;;;;5072257;28;20020;-28
2024/02/01 12:19:37;;;;;;;21.48;4.00;;;;;;;;;;5072077;28;20024;-28
2024/02/01 12:22:04;;;;;;;25.52;4.55;;;;;;;;;;5071184;28;20027;-28
2024/02/01 12:24:33;;;;;;;23.02;4.28;;;;;;;;;;5070912;28;20403;-28
2024/02/01 12:26:58;;;;;;;25.20;4.28;;;;;;;;;;5070797;28;20038;-28
2024/02/01 12:29:23;;;;;;;19.33;4.00;;;;;;;;;;5070021;28;20096;-28
2024/02/01 12:31:49;;;;;;;22.27;3.95;;;;;;;;;;5071772;28;20016;-28
2024/02/01 12:34:15;;;;;;;20.42;4.10;;;;;;;;;;5071916;28;20013;-28
2024/02/01 12:36:40;;;;;;;26.17;4.28;;;;;;;;;;5072652;28;20012;-28
2024/02/01 12:39:05;;;;;;;24.70;4.20;;;;;;;;;;5073968;28;20406;-28
2024/02/01 12:41:34;;;;;;;20.27;3.83;;;;;;;;;;5073651;28;20024;-29
2024/02/01 12:44:00;;;;;;;27.90;3.97;;;;;;;;;;5073020;28;20104;-29
2024/02/01 12:46:27;;;;;;;21.27;3.70;;;;;;;;;;5073438;28;20024;-28
2024/02/01 12:48:52;;;;;;;24.13;4.23;;;;;;;;;;5073148;28;20764;-28
2024/02/01 12:51:17;;;;;;;26.33;4.20;;;;;;;;;;5073490;28;20259;-28
2024/02/01 12:53:42;;;;;;;28.47;3.97;;;;;;;;;;5073963;28;20262;-28
2024/02/01 12:56:09;;;;;;;21.63;4.03;;;;;;;;;;5073961;28;20285;-28
2024/02/01 12:58:39;;;;;;;26.20;4.18;;;;;;;;;;5073802;28;20376;-28
2024/02/01 13:01:04;;;;;;;24.73;3.95;;;;;;;;;;5074149;28;20095;-28
2024/02/01 13:03:29;;;;;;;23.95;4.15;;;;;;;;;;5073451;28;20142;-28
2024/02/01 13:05:55;;;;;;;23.90;4.17;;;;;;;;;;5074228;28;20020;-28
2024/02/01 13:08:20;;;;;;;28.00;3.93;;;;;;;;;;5073647;28;20291;-28
2024/02/01 13:10:45;;;;;;;24.33;3.80;;;;;;;;;;5073130;28;20028;-28
2024/02/01 13:13:11;;;;;;;30.52;4.80;;;;;;;;;;5072213;28;20077;-28
2024/02/01 13:15:46;;;;;;;27.48;4.65;;;;;;;;;;5074066;28;20024;-28
2024/02/01 13:18:14;;;;;;;20.27;4.47;;;;;;;;;;5073358;28;20021;-28
2024/02/01 13:20:40;;;;;;;27.25;4.60;;;;;;;;;;5073876;28;20039;-28
2024/02/01 13:23:11;;;;;;;26.60;4.60;;;;;;;;;;5073339;28;20028;-28
2024/02/01 13:25:38;;;;;;;19.55;3.70;;;;;;;;;;5073668;28;20113;-28
2024/02/01 13:28:03;;;;;;;25.73;4.30;;;;;;;;;;5073628;28;20439;-28
2024/02/01 13:30:28;;;;;;;22.33;4.32;;;;;;;;;;5073767;28;20056;-28
2024/02/01 13:32:53;;;;;;;22.42;4.18;;;;;;;;;;5073313;28;20104;-28
2024/02/01 13:35:19;;;;;;;28.77;4.43;;;;;;;;;;5073246;28;20028;-28
2024/02/01 13:37:46;;;;;;;22.70;4.43;;;;;;;;;;5073165;28;20262;-28
2024/02/01 13:40:14;;;;;;;29.65;4.47;;;;;;;;;;5073523;28;20016;-28
2024/02/01 13:42:43;;;;;;;27.10;3.85;;;;;;;;;;5073178;28;20103;-28
2024/02/01 13:45:08;;;;;;;29.35;4.65;;;;;;;;;;5073312;28;20021;-28
2024/02/01 13:47:34;;;;;;;22.30;3.85;;;;;;;;;;5073783;28;20024;-28
2024/02/01 13:49:59;;;;;;;24.73;3.63;;;;;;;;;;5073039;28;20459;-28
2024/02/01 13:52:24;;;;;;;23.25;3.78;;;;;;;;;;5073342;28;20023;-28
2024/02/01 13:54:49;;;;;;;32.20;3.83;;;;;;;;;;5073108;28;20024;-28
2024/02/01 13:57:14;;;;;;;35.28;3.33;;;;;;;;;;5073227;28;20302;-28
2024/02/01 13:59:40;;;;;;;27.70;3.97;;;;;;;;;;5073796;28;20483;-28
2024/02/01 14:02:08;;;;;;;20.38;3.53;;;;;;;;;;5077006;28;20310;-28
2024/02/01 14:04:33;;;;;;;23.83;4.22;;;;;;;;;;5076864;28;20056;-28
2024/02/01 14:06:58;;;;;;;31.33;3.73;;;;;;;;;;5076980;28;20114;-28
2024/02/01 14:09:23;;;;;;;24.20;4.27;;;;;;;;;;5076893;28;20016;-28
2024/02/01 14:11:49;;;;;;;25.80;3.80;;;;;;;;;;5076782;28;20528;-28
2024/02/01 14:14:14;;;;;;;22.77;3.87;;;;;;;;;;5076782;28;20058;-28
2024/02/01 14:16:39;;;;;;;19.93;3.97;;;;;;;;;;5076751;28;20670;-28
2024/02/01 14:19:05;;;;;;;19.77;4.03;;;;;;;;;;5076958;28;20266;-28
2024/02/01 14:21:30;;;;;;;26.65;4.35;;;;;;;;;;5076618;28;20060;-27
2024/02/01 14:23:57;;;;;;;24.30;3.17;;;;;;;;;;5076895;28;20027;-28
2024/02/01 14:26:22;;;;;;;27.83;3.70;;;;;;;;;;5076649;28;20446;-28
2024/02/01 14:28:47;;;;;;;28.92;4.78;;;;;;;;;;5076961;28;20143;-28
2024/02/01 14:31:13;;;;;;;24.77;3.67;;;;;;;;;;5076718;28;20085;-28
2024/02/01 14:33:38;;;;;;;24.63;4.40;;;;;;;;;;5076414;28;20024;-28
2024/02/01 14:36:03;;;;;;;32.10;4.17;;;;;;;;;;5076494;28;20376;-28
2024/02/01 14:38:28;;;;;;;24.83;3.67;;;;;;;;;;5075919;28;20316;-28
2024/02/01 14:40:54;;;;;;;21.60;3.40;;;;;;;;;;5076033;28;20479;-29
2024/02/01 14:43:19;;;;;;;24.77;4.03;;;;;;;;;;5076392;28;20044;-28
2024/02/01 14:45:44;;;;;;;32.23;3.60;;;;;;;;;;5076158;28;20292;-28
2024/02/01 14:48:09;;;;;;;20.95;3.25;;;;;;;;;;5076108;28;20247;-28
2024/02/01 14:50:34;;;;;;;22.70;3.17;;;;;;;;;;5076484;28;20035;-28
2024/02/01 14:53:00;;;;;;;22.83;3.67;;;;;;;;;;5076467;28;20023;-28
2024/02/01 14:55:25;;;;;;;18.38;3.17;;;;;;;;;;5075864;28;20292;-28
2024/02/01 14:57:50;;;;;;;25.70;3.57;;;;;;;;;;5076116;28;20071;-28
2024/02/01 15:00:25;;;;;;;20.77;3.60;;;;;;;;;;5075666;28;20266;-28
2024/02/01 15:02:51;;;;;;;19.67;3.08;;;;;;;;;;5075971;28;20098;-28
2024/02/01 15:05:17;;;;;;;21.02;2.75;;;;;;;;;;5076136;28;20017;-28
2024/02/01 15:07:42;;;;;;;23.88;2.97;;;;;;;;;;5075954;28;20027;-28
2024/02/01 15:10:14;;;;;;;25.67;3.28;;;;;;;;;;5075628;28;20024;-28
2024/02/01 15:12:39;;;;;;;21.38;2.83;;;;;;;;;;5074673;28;20020;-28
2024/02/01 15:15:04;;;;;;;24.25;3.85;;;;;;;;;;5075598;28;20023;-28
2024/02/01 15:17:30;;;;;;;22.80;3.70;;;;;;;;;;5075038;28;20155;-28
2024/02/01 15:19:56;;;;;;;21.88;3.00;;;;;;;;;;5073574;28;20016;-28